Albia, IA

3:45 AM CDT on May 30, 2015 (GMT -0500)
IADOT | | Change Station
CLOSE
Current Station
Personal Weather Station
Location: Eddyville, IA
Elevation: 799 ft
Nearby Weather Stations

Elev 799 ft 41.15 °N, 92.64 °W | Updated 25 minutes ago

Overcast
Overcast
66 °F
Feels Like 66 °F
N
6
Wind Variable Wind from WNW
Gusts 10.0 mph

Today
High -- | Low -- °F
--% Chance of Precip.
Yesterday
High -- | Low -- °F
Precip. -- in
5:41 AM 8:35 PM
Waxing Gibbous, 89% visible
Pressure 29.92 in
Visibility 10.0 miles
Clouds Few 1700 ft
Scattered Clouds 2300 ft
Mostly Cloudy 3100 ft
Dew Point 64 °F
Humidity 95%
Rainfall in
Snow Depth Not available.
UV 0 out of 12
Pollen .90 out of 12
Air Quality Not available.
Flu Activity No Activity
SPECI KOTM 300826Z AUTO 20007KT 10SM FEW017 SCT023 BKN031 18/17 A2992 RMK AO2 T01780172

More Conditions Fewer Conditions

Pressure 29.92 in
Visibility 10.0 miles
Clouds Few 1700 ft
Scattered Clouds 2300 ft
Mostly Cloudy 3100 ft
Dew Point 64 °F
Humidity 95%
Rainfall in
Snow Depth Not available.
UV 0 out of 12
Pollen .90 out of 12
Air Quality Not available.
Flu Activity No Activity
SPECI KOTM 300826Z AUTO 20007KT 10SM FEW017 SCT023 BKN031 18/17 A2992 RMK AO2 T01780172

More Conditions Fewer Conditions

10-Day Weather Forecast

Almanac

Astronomy

May. 30, 2015 Rise Set
Actual Time
Civil Twilight
Nautical Twilight
Astronomical Twilight
Moon
Length of Visible Light
Length of Day
Tomorrow will be .
, % of the Moon is Illuminated

Today's Extremes

State Highs State Lows

Community

WunderPhotos

Upload Photos

1,825,472 photos uploaded!

WunderBlogs® & News

Nearby

Air Quality

  Air Quality AQ Index Pollutant
Not available.

Snow Depth

Station Depth Elevation

Earthquake Activity

City Distance Mag. Time & Date
Minimum magnitude displayed is 2.5.

Coastal Water Temperatures

Place Temperature

Stations

Nearby Weather Stations

Station Location Temp. Windchill Dew Point Humidity Wind Precip. Elev Updated Type